Terminal Aerodrome Forecast
Issued by NWS

Home | Current Version | Previous Version | Text Only | Print | Product List | Glossary On
Versions: 1 2 3 4 5 6 7 8 9 10 11 12 13 14 15
000
FTUS45 KTFX 231739
TAFHVR
TAF
KHVR 231739Z 2318/2418 30022G35KT P6SM OVC045
     FM240600 29012G22KT P6SM BKN025 PROB30 2409/2413 -SHRA BKN012=

USA.gov is the U.S. government's official web portal to all federal, state and local government web resources and services.